createdAt,value
2019-03-05T00:00:46.578Z,94356.67
2019-03-05T00:03:15.303Z,94361.06
2019-03-05T00:05:43.977Z,94349.87
2019-03-05T00:08:12.608Z,94348.59
2019-03-05T00:10:41.097Z,94343.01
2019-03-05T00:13:09.835Z,94341.02
2019-03-05T00:15:38.536Z,94340.61
2019-03-05T00:18:07.171Z,94342.30
2019-03-05T00:20:35.943Z,94335.60
2019-03-05T00:23:04.567Z,94346.24
2019-03-05T00:25:37.628Z,94339.06
2019-03-05T00:28:29.306Z,94344.35
2019-03-05T00:31:03.522Z,94340.03
2019-03-05T00:33:56.328Z,94345.57
2019-03-05T00:36:30.443Z,94339.84
2019-03-05T00:39:14.119Z,94337.56
2019-03-05T00:41:45.655Z,94342.66
2019-03-05T00:44:23.094Z,94340.58
2019-03-05T00:46:57.643Z,94346.02
2019-03-05T00:49:53.198Z,94346.16
2019-03-05T00:52:45.735Z,94348.64
2019-03-05T00:55:26.267Z,94345.28
2019-03-05T00:58:10.048Z,94355.53
2019-03-05T01:00:44.534Z,94352.30
2019-03-05T01:03:25.092Z,94351.20
2019-03-05T01:05:56.732Z,94353.50
2019-03-05T01:08:25.439Z,94358.77
2019-03-05T01:10:54.117Z,94354.18
2019-03-05T01:13:22.890Z,94350.95
2019-03-05T01:15:51.683Z,94343.98
2019-03-05T01:18:20.324Z,94339.05
2019-03-05T01:20:48.991Z,94347.13
2019-03-05T01:23:17.554Z,94328.00
2019-03-05T01:25:46.410Z,94338.15
2019-03-05T01:28:15.264Z,94342.91
2019-03-05T01:30:45.738Z,94329.58
2019-03-05T01:33:16.408Z,94351.28
2019-03-05T01:35:46.714Z,94331.81
2019-03-05T01:38:15.343Z,94333.40
2019-03-05T01:40:43.979Z,94346.31
2019-03-05T01:43:12.589Z,94350.72
2019-03-05T01:45:41.161Z,94339.34
2019-03-05T01:48:15.578Z,94322.56
2019-03-05T01:50:44.422Z,94309.56
2019-03-05T01:53:12.928Z,94297.50
2019-03-05T01:55:41.410Z,94309.77
2019-03-05T01:58:10.072Z,94304.07
2019-03-05T02:00:38.988Z,94300.17
2019-03-05T02:03:07.545Z,94297.08
2019-03-05T02:05:36.216Z,94295.00
2019-03-05T02:08:04.843Z,94294.27
2019-03-05T02:10:33.477Z,94294.02
2019-03-05T02:13:02.069Z,94292.91
2019-03-05T02:15:30.705Z,94296.40
2019-03-05T02:17:59.192Z,94293.84
2019-03-05T02:20:27.858Z,94287.14
2019-03-05T02:23:02.381Z,94294.79
2019-03-05T02:25:33.963Z,94296.15
2019-03-05T02:28:20.267Z,94289.95
2019-03-05T02:30:54.975Z,94291.44
2019-03-05T02:33:50.783Z,94293.77
2019-03-05T02:36:37.727Z,94293.55
2019-03-05T02:39:38.252Z,94291.85
2019-03-05T02:42:38.703Z,94289.13
2019-03-05T02:45:25.215Z,94277.45
2019-03-05T02:48:14.744Z,94286.50
2019-03-05T02:51:10.656Z,94282.17
2019-03-05T02:54:17.546Z,94281.06
2019-03-05T02:57:08.578Z,94283.28
2019-03-05T02:59:37.629Z,94268.80
2019-03-05T03:02:08.919Z,94261.23
2019-03-05T03:04:39.185Z,94266.16
2019-03-05T03:07:07.767Z,94263.86
2019-03-05T03:09:39.310Z,94266.80
2019-03-05T03:12:07.942Z,94283.39
2019-03-05T03:14:36.608Z,94294.69
2019-03-05T03:17:05.102Z,94303.14
2019-03-05T03:19:33.660Z,94296.22
2019-03-05T03:22:02.513Z,94289.23
2019-03-05T03:24:31.146Z,94290.38
2019-03-05T03:26:59.706Z,94306.16
2019-03-05T03:29:28.323Z,94309.11
2019-03-05T03:31:56.955Z,94318.72
2019-03-05T03:34:25.591Z,94317.27
2019-03-05T03:36:54.313Z,94322.00
2019-03-05T03:39:22.944Z,94321.69
2019-03-05T03:41:51.501Z,94316.09
2019-03-05T03:44:20.177Z,94313.44
2019-03-05T03:46:48.801Z,94317.67
2019-03-05T03:49:17.445Z,94317.31
2019-03-05T03:51:45.976Z,94324.10
2019-03-05T03:54:14.478Z,94327.89
2019-03-05T03:56:43.095Z,94332.24
2019-03-05T03:59:11.768Z,94334.62
2019-03-05T04:01:40.310Z,94348.07
2019-03-05T04:04:08.889Z,94354.33
2019-03-05T04:06:37.650Z,94352.04
2019-03-05T04:09:09.268Z,94358.01
2019-03-05T04:11:37.927Z,94348.67
2019-03-05T04:14:06.535Z,94343.47
2019-03-05T04:16:35.273Z,94341.21
2019-03-05T04:19:05.470Z,94330.72
2019-03-05T04:21:34.145Z,94340.87
2019-03-05T04:24:02.774Z,94340.48
2019-03-05T04:26:31.270Z,94334.16
2019-03-05T04:28:59.797Z,94324.73
2019-03-05T04:31:28.358Z,94341.97
2019-03-05T04:33:56.998Z,94357.03
2019-03-05T04:36:25.622Z,94357.03
2019-03-05T04:38:54.284Z,94364.44
2019-03-05T04:41:22.909Z,94364.64
2019-03-05T04:43:51.785Z,94371.53
2019-03-05T04:46:33.583Z,94362.88
2019-03-05T04:49:03.837Z,94375.36
2019-03-05T04:51:34.120Z,94366.63
2019-03-05T04:54:02.814Z,94372.44
2019-03-05T04:56:31.389Z,94386.66
2019-03-05T04:59:00.024Z,94386.34
2019-03-05T05:01:28.513Z,94392.53
2019-03-05T05:03:57.049Z,94398.83
2019-03-05T05:06:25.676Z,94390.63
2019-03-05T05:08:55.339Z,94386.25
2019-03-05T05:11:23.944Z,94387.52
2019-03-05T05:13:52.453Z,94385.93
2019-03-05T05:16:21.090Z,94379.32
2019-03-05T05:18:49.974Z,94384.69
2019-03-05T05:21:18.541Z,94384.27
2019-03-05T05:23:47.103Z,94390.73
2019-03-05T05:26:17.701Z,94370.23
2019-03-05T05:28:46.141Z,94382.16
2019-03-05T05:31:14.716Z,94379.61
2019-03-05T05:33:43.321Z,94375.73
2019-03-05T05:36:11.955Z,94381.16
2019-03-05T05:38:40.533Z,94375.14
2019-03-05T05:41:09.214Z,94379.61
2019-03-05T05:43:37.852Z,94398.66
2019-03-05T05:46:06.342Z,94403.14
2019-03-05T05:48:34.897Z,94410.01
2019-03-05T05:51:03.543Z,94415.30
2019-03-05T05:53:32.166Z,94399.25
2019-03-05T05:56:00.699Z,94391.95
2019-03-05T05:58:29.315Z,94404.03
2019-03-05T06:00:59.590Z,94403.42
2019-03-05T06:03:28.272Z,94392.70
2019-03-05T06:05:56.784Z,94404.33
2019-03-05T06:08:25.289Z,94415.94
2019-03-05T06:10:53.957Z,94417.40
2019-03-05T06:13:22.603Z,94413.98
2019-03-05T06:15:51.157Z,94404.55
2019-03-05T06:18:19.868Z,94414.56
2019-03-05T06:20:48.502Z,94423.77
2019-03-05T06:23:17.014Z,94420.72
2019-03-05T06:25:45.647Z,94422.23
2019-03-05T06:28:14.283Z,94433.42
2019-03-05T06:30:43.870Z,94429.56
2019-03-05T06:33:12.438Z,94424.38
2019-03-05T06:35:41.074Z,94444.81
2019-03-05T06:38:09.759Z,94457.56
2019-03-05T06:40:38.327Z,94451.66
2019-03-05T06:43:06.898Z,94446.69
2019-03-05T06:45:35.765Z,94442.94
2019-03-05T06:48:04.508Z,94446.45
2019-03-05T06:50:33.010Z,94435.69
2019-03-05T06:53:01.678Z,94444.48
2019-03-05T06:55:30.405Z,94456.00
2019-03-05T06:57:59.048Z,94454.47
2019-03-05T07:00:34.357Z,94451.95
2019-03-05T07:03:03.915Z,94454.09
2019-03-05T07:06:10.867Z,94447.49
2019-03-05T07:08:45.431Z,94443.14
2019-03-05T07:11:38.285Z,94462.42
2019-03-05T07:14:12.619Z,94461.61
2019-03-05T07:16:53.063Z,94471.71
2019-03-05T07:19:23.822Z,94468.66
2019-03-05T07:22:22.532Z,94464.62
2019-03-05T07:24:51.573Z,94467.70
2019-03-05T07:27:23.366Z,94459.42
2019-03-05T07:29:52.456Z,94460.08
2019-03-05T07:32:21.025Z,94474.87
2019-03-05T07:34:51.168Z,94462.05
2019-03-05T07:37:19.855Z,94463.19
2019-03-05T07:39:48.424Z,94464.33
2019-03-05T07:42:17.125Z,94472.09
2019-03-05T07:44:51.594Z,94471.39
2019-03-05T07:47:20.161Z,94477.73
2019-03-05T07:49:48.664Z,94480.08
2019-03-05T07:52:17.350Z,94476.28
2019-03-05T07:54:45.994Z,94477.52
2019-03-05T07:57:14.567Z,94470.06
2019-03-05T07:59:43.121Z,94471.50
2019-03-05T08:02:11.802Z,94462.02
2019-03-05T08:04:40.455Z,94458.11
2019-03-05T08:07:09.306Z,94458.00
2019-03-05T08:09:38.666Z,94469.14
2019-03-05T08:12:16.226Z,94474.27
2019-03-05T08:14:56.643Z,94473.04
2019-03-05T08:17:26.081Z,94476.36
2019-03-05T08:19:54.716Z,94469.85
2019-03-05T08:22:23.558Z,94470.39
2019-03-05T08:24:52.115Z,94467.63
2019-03-05T08:27:23.500Z,94462.44
2019-03-05T08:29:52.141Z,94457.02
2019-03-05T08:32:20.833Z,94462.73
2019-03-05T08:34:49.343Z,94461.45
2019-03-05T08:37:17.978Z,94457.76
2019-03-05T08:39:46.611Z,94457.38
2019-03-05T08:42:15.181Z,94450.72
2019-03-05T08:44:50.342Z,94452.16
2019-03-05T08:47:14.144Z,94451.55
2019-03-05T08:49:42.780Z,94448.52
2019-03-05T08:52:11.494Z,94450.23
2019-03-05T08:54:40.119Z,94452.19
2019-03-05T08:57:08.747Z,94456.31
2019-03-05T08:59:37.349Z,94457.22
2019-03-05T09:02:05.985Z,94454.41
2019-03-05T09:04:34.625Z,94447.09
2019-03-05T09:07:03.231Z,94451.58
2019-03-05T09:09:31.731Z,94432.78
2019-03-05T09:12:00.358Z,94449.59
2019-03-05T09:14:29.035Z,94446.27
2019-03-05T09:16:57.600Z,94441.06
2019-03-05T09:19:26.095Z,94441.30
2019-03-05T09:21:54.761Z,94444.95
2019-03-05T09:24:23.396Z,94443.70
2019-03-05T09:26:51.951Z,94433.58
2019-03-05T09:29:20.547Z,94439.70
2019-03-05T09:31:49.190Z,94437.02
2019-03-05T09:34:17.821Z,94441.84
2019-03-05T09:36:51.078Z,94438.14
2019-03-05T09:39:16.676Z,94443.20
2019-03-05T09:41:45.317Z,94444.08
2019-03-05T09:44:13.975Z,94441.57
2019-03-05T09:46:42.537Z,94438.38
2019-03-05T09:49:11.108Z,94440.47
2019-03-05T09:51:39.735Z,94438.59
2019-03-05T09:54:08.694Z,94442.22
2019-03-05T09:56:37.287Z,94436.58
2019-03-05T09:59:06.150Z,94437.63
2019-03-05T10:01:35.127Z,94444.66
2019-03-05T10:04:03.859Z,94433.85
2019-03-05T10:06:32.495Z,94432.91
2019-03-05T10:09:01.114Z,94430.13
2019-03-05T10:11:29.742Z,94431.75
2019-03-05T10:13:58.382Z,94428.02
2019-03-05T10:16:26.921Z,94423.53
2019-03-05T10:18:55.616Z,94423.97
2019-03-05T10:21:24.114Z,94424.13
2019-03-05T10:23:52.922Z,94418.95
2019-03-05T10:26:28.217Z,94421.84
2019-03-05T10:28:56.839Z,94409.19
2019-03-05T10:31:25.393Z,94414.44
2019-03-05T10:33:54.020Z,94414.12
2019-03-05T10:36:22.768Z,94403.33
2019-03-05T10:38:57.381Z,94396.73
2019-03-05T10:41:22.003Z,94401.09
2019-03-05T10:43:50.665Z,94397.22
2019-03-05T10:46:19.540Z,94395.28
2019-03-05T10:48:48.170Z,94377.86
2019-03-05T10:51:16.929Z,94380.09
2019-03-05T10:53:45.461Z,94386.97
2019-03-05T10:56:14.099Z,94375.84
2019-03-05T10:58:42.652Z,94375.30
2019-03-05T11:01:11.798Z,94370.36
2019-03-05T11:03:40.419Z,94361.67
2019-03-05T11:06:09.153Z,94360.94
2019-03-05T11:08:37.834Z,94354.19
2019-03-05T11:11:13.368Z,94355.17
2019-03-05T11:13:37.315Z,94359.01
2019-03-05T11:16:06.573Z,94348.55
2019-03-05T11:18:36.207Z,94351.52
2019-03-05T11:21:06.337Z,94347.63
2019-03-05T11:23:35.018Z,94353.20
2019-03-05T11:26:03.853Z,94353.97
2019-03-05T11:28:32.492Z,94354.52
2019-03-05T11:31:01.157Z,94346.11
2019-03-05T11:33:29.795Z,94349.70
2019-03-05T11:35:58.361Z,94355.05
2019-03-05T11:38:27.034Z,94351.98
2019-03-05T11:40:55.597Z,94342.45
2019-03-05T11:43:24.161Z,94344.50
2019-03-05T11:45:52.829Z,94345.74
2019-03-05T11:48:24.249Z,94355.58
2019-03-05T11:50:52.837Z,94351.13
2019-03-05T11:53:21.497Z,94338.72
2019-03-05T11:55:50.131Z,94337.23
2019-03-05T11:58:18.764Z,94336.70
2019-03-05T12:00:54.961Z,94342.39
2019-03-05T12:03:23.538Z,94333.48
2019-03-05T12:05:52.158Z,94333.39
2019-03-05T12:08:21.051Z,94334.56
2019-03-05T12:10:49.612Z,94337.42
2019-03-05T12:13:18.445Z,94331.60
2019-03-05T12:15:47.226Z,94329.45
2019-03-05T12:18:15.856Z,94328.89
2019-03-05T12:20:44.427Z,94331.31
2019-03-05T12:23:13.147Z,94335.66
2019-03-05T12:25:41.911Z,94337.73
2019-03-05T12:28:11.545Z,94343.13
2019-03-05T12:30:40.487Z,94330.89
2019-03-05T12:33:08.969Z,94338.08
2019-03-05T12:35:37.744Z,94334.89
2019-03-05T12:38:06.465Z,94337.87
2019-03-05T12:40:35.030Z,94334.16
2019-03-05T12:43:03.707Z,94334.47
2019-03-05T12:45:32.340Z,94334.30
2019-03-05T12:48:00.971Z,94330.25
2019-03-05T12:50:31.375Z,94330.55
2019-03-05T12:53:00.015Z,94329.93
2019-03-05T12:55:28.685Z,94331.28
2019-03-05T12:57:57.347Z,94330.97
2019-03-05T13:00:28.689Z,94330.45
2019-03-05T13:02:57.674Z,94323.75
2019-03-05T13:05:26.314Z,94327.62
2019-03-05T13:07:56.671Z,94326.17
2019-03-05T13:10:26.465Z,94324.94
2019-03-05T13:12:55.089Z,94325.64
2019-03-05T13:15:31.683Z,94326.36
2019-03-05T13:18:02.203Z,94327.93
2019-03-05T13:20:30.842Z,94344.06
2019-03-05T13:22:59.719Z,94340.98
2019-03-05T13:25:29.719Z,94335.92
2019-03-05T13:28:02.275Z,94338.98
2019-03-05T13:30:32.952Z,94334.84
2019-03-05T13:33:01.589Z,94335.73
2019-03-05T13:35:32.035Z,94326.83
2019-03-05T13:38:10.563Z,94335.82
2019-03-05T13:40:40.683Z,94332.06
2019-03-05T13:43:09.545Z,94340.39
2019-03-05T13:45:38.273Z,94338.81
2019-03-05T13:48:27.991Z,94332.63
2019-03-05T13:51:14.774Z,94336.13
2019-03-05T13:53:59.990Z,94334.75
2019-03-05T13:56:37.740Z,94331.70
2019-03-05T13:59:33.376Z,94333.35
2019-03-05T14:02:03.040Z,94337.42
2019-03-05T14:04:49.750Z,94342.45
2019-03-05T14:07:42.699Z,94341.58
2019-03-05T14:10:11.417Z,94339.24
2019-03-05T14:12:40.008Z,94341.83
2019-03-05T14:15:11.360Z,94349.12
2019-03-05T14:17:41.377Z,94350.17
2019-03-05T14:20:15.791Z,94349.62
2019-03-05T14:22:44.405Z,94346.67
2019-03-05T14:25:15.351Z,94350.05
2019-03-05T14:27:44.114Z,94353.56
2019-03-05T14:30:15.747Z,94350.45
2019-03-05T14:32:44.573Z,94353.95
2019-03-05T14:35:14.625Z,94357.85
2019-03-05T14:37:43.573Z,94357.38
2019-03-05T14:40:24.047Z,94352.31
2019-03-05T14:42:45.548Z,94353.88
2019-03-05T14:45:19.734Z,94354.89
2019-03-05T14:47:48.389Z,94357.75
2019-03-05T14:50:17.039Z,94355.70
2019-03-05T14:52:45.704Z,94351.08
2019-03-05T14:55:14.783Z,94348.40
2019-03-05T14:57:43.424Z,94348.08
2019-03-05T15:00:18.016Z,94349.56
2019-03-05T15:02:46.767Z,94345.87
2019-03-05T15:05:15.390Z,94348.52
2019-03-05T15:07:44.123Z,94344.56
2019-03-05T15:10:12.782Z,94353.08
2019-03-05T15:12:41.341Z,94350.06
2019-03-05T15:15:21.651Z,94352.08
2019-03-05T15:17:50.797Z,94351.42
2019-03-05T15:20:19.446Z,94351.00
2019-03-05T15:22:48.039Z,94341.84
2019-03-05T15:25:17.091Z,94349.56
2019-03-05T15:27:45.723Z,94353.02
2019-03-05T15:30:24.935Z,94352.28
2019-03-05T15:32:53.507Z,94351.92
2019-03-05T15:35:22.028Z,94350.38
2019-03-05T15:37:50.677Z,94353.63
2019-03-05T15:40:19.956Z,94339.61
2019-03-05T15:42:48.630Z,94359.20
2019-03-05T15:45:18.964Z,94362.45
2019-03-05T15:47:47.708Z,94366.77
2019-03-05T15:50:21.522Z,94372.91
2019-03-05T15:52:50.184Z,94371.08
2019-03-05T15:55:18.786Z,94378.65
2019-03-05T15:57:47.396Z,94386.41
2019-03-05T16:00:31.205Z,94386.55
2019-03-05T16:03:00.881Z,94395.47
2019-03-05T16:05:29.846Z,94394.94
2019-03-05T16:08:00.867Z,94400.75
2019-03-05T16:10:28.797Z,94399.17
2019-03-05T16:12:57.436Z,94404.06
2019-03-05T16:15:26.082Z,94402.68
2019-03-05T16:17:54.742Z,94399.80
2019-03-05T16:22:55.135Z,94417.59
2019-03-05T16:25:24.515Z,94412.32
2019-03-05T16:27:53.146Z,94422.33
2019-03-05T16:30:47.221Z,94416.44
2019-03-05T16:33:20.457Z,94424.09
2019-03-05T16:36:06.923Z,94434.22
2019-03-05T16:38:55.173Z,94437.09
2019-03-05T16:41:34.170Z,94439.98
2019-03-05T16:44:16.603Z,94450.37
2019-03-05T16:46:55.634Z,94449.71
2019-03-05T16:48:18.893Z,94408.08
2019-03-05T16:49:25.904Z,94459.33
2019-03-05T16:52:14.455Z,94459.81
2019-03-05T16:54:47.484Z,94474.59
2019-03-05T16:57:20.579Z,94484.16
2019-03-05T16:59:50.863Z,94493.28
2019-03-05T17:02:21.157Z,94495.03
2019-03-05T17:04:51.480Z,94503.77
2019-03-05T17:07:21.752Z,94509.52
2019-03-05T17:09:51.963Z,94508.13
2019-03-05T17:12:20.601Z,94508.88
2019-03-05T17:14:49.243Z,94515.33
2019-03-05T17:17:17.903Z,94519.61
2019-03-05T17:19:46.749Z,94517.70
2019-03-05T17:22:15.387Z,94519.22
2019-03-05T17:24:44.053Z,94523.90
2019-03-05T17:27:12.697Z,94521.22
2019-03-05T17:29:41.181Z,94536.27
2019-03-05T17:32:10.097Z,94539.34
2019-03-05T17:34:38.738Z,94539.09
2019-03-05T17:37:07.506Z,94546.74
2019-03-05T17:39:35.997Z,94537.53
2019-03-05T17:42:04.728Z,94545.01
2019-03-05T17:44:34.862Z,94556.78
2019-03-05T17:47:03.732Z,94550.73
2019-03-05T17:49:32.293Z,94551.09
2019-03-05T17:52:00.913Z,94559.63
2019-03-05T17:54:29.546Z,94541.34
2019-03-05T17:56:58.173Z,94566.58
2019-03-05T17:59:26.708Z,94573.13
2019-03-05T18:01:55.205Z,94576.91
2019-03-05T18:04:23.845Z,94582.29
2019-03-05T18:06:52.527Z,94576.56
2019-03-05T18:09:21.165Z,94582.22
2019-03-05T18:11:49.736Z,94583.45
2019-03-05T18:14:18.402Z,94587.22
2019-03-05T18:16:47.033Z,94590.35
2019-03-05T18:19:15.536Z,94592.75
2019-03-05T18:21:44.206Z,94589.17
2019-03-05T18:24:12.696Z,94593.41
2019-03-05T18:26:41.345Z,94599.66
2019-03-05T18:29:10.038Z,94595.25
2019-03-05T18:31:38.677Z,94598.84
2019-03-05T18:34:07.325Z,94603.58
2019-03-05T18:36:35.998Z,94602.73
2019-03-05T18:39:05.410Z,94608.31
2019-03-05T18:41:34.049Z,94610.16
2019-03-05T18:44:02.943Z,94613.70
2019-03-05T18:46:31.780Z,94618.23
2019-03-05T18:49:03.157Z,94618.23
2019-03-05T18:51:31.829Z,94618.62
2019-03-05T18:54:00.385Z,94631.12
2019-03-05T18:56:28.957Z,94626.37
2019-03-05T18:58:57.638Z,94636.37
2019-03-05T19:01:26.136Z,94642.06
2019-03-05T19:03:54.777Z,94640.08
2019-03-05T19:06:23.662Z,94637.81
2019-03-05T19:08:52.227Z,94630.61
2019-03-05T19:11:20.720Z,94633.35
2019-03-05T19:13:49.489Z,94636.91
2019-03-05T19:16:18.122Z,94638.28
2019-03-05T19:18:46.613Z,94640.92
2019-03-05T19:21:15.228Z,94635.43
2019-03-05T19:23:43.862Z,94647.75
2019-03-05T19:26:12.610Z,94642.67
2019-03-05T19:28:41.180Z,94643.82
2019-03-05T19:31:09.757Z,94646.23
2019-03-05T19:33:38.441Z,94646.41
2019-03-05T19:36:07.090Z,94639.47
2019-03-05T19:38:35.600Z,94646.41
2019-03-05T19:41:04.466Z,94653.62
2019-03-05T19:43:33.051Z,94657.32
2019-03-05T19:46:01.555Z,94663.84
2019-03-05T19:48:30.315Z,94667.97
2019-03-05T19:50:58.948Z,94673.37
2019-03-05T19:53:30.481Z,94676.58
2019-03-05T19:55:59.091Z,94679.09
2019-03-05T19:58:27.722Z,94687.03
2019-03-05T20:01:10.369Z,94685.34
2019-03-05T20:03:39.001Z,94686.56
2019-03-05T20:06:07.634Z,94689.59
2019-03-05T20:08:40.085Z,94693.70
2019-03-05T20:11:07.101Z,94705.64
2019-03-05T20:13:35.626Z,94707.27
2019-03-05T20:16:05.303Z,94714.45
2019-03-05T20:18:33.937Z,94719.34
2019-03-05T20:21:02.568Z,94712.08
2019-03-05T20:23:31.243Z,94712.05
2019-03-05T20:26:00.113Z,94710.53
2019-03-05T20:28:28.654Z,94711.41
2019-03-05T20:30:57.191Z,94709.52
2019-03-05T20:33:25.816Z,94715.62
2019-03-05T20:35:54.451Z,94717.33
2019-03-05T20:38:23.049Z,94722.23
2019-03-05T20:40:51.613Z,94722.78
2019-03-05T20:43:20.249Z,94734.61
2019-03-05T20:45:57.655Z,94729.48
2019-03-05T20:48:26.219Z,94738.16
2019-03-05T20:50:54.719Z,94736.36
2019-03-05T20:53:23.446Z,94739.44
2019-03-05T20:55:52.102Z,94742.63
2019-03-05T20:58:20.593Z,94735.21
2019-03-05T21:00:49.269Z,94738.13
2019-03-05T21:03:17.834Z,94754.41
2019-03-05T21:05:47.966Z,94768.34
2019-03-05T21:08:16.639Z,94775.53
2019-03-05T21:10:45.280Z,94788.67
2019-03-05T21:13:16.374Z,94798.73
2019-03-05T21:15:44.970Z,94817.36
2019-03-05T21:18:19.580Z,94833.58
2019-03-05T21:20:48.302Z,94841.04
2019-03-05T21:23:17.279Z,94846.20
2019-03-05T21:25:45.959Z,94842.53
2019-03-05T21:28:14.582Z,94843.72
2019-03-05T21:30:43.245Z,94838.94
2019-03-05T21:33:11.868Z,94845.12
2019-03-05T21:35:40.607Z,94839.66
2019-03-05T21:38:09.274Z,94845.30
2019-03-05T21:40:37.834Z,94841.33
2019-03-05T21:43:06.458Z,94840.13
2019-03-05T21:45:40.835Z,94833.55
2019-03-05T21:48:09.465Z,94829.44
2019-03-05T21:50:38.027Z,94837.80
2019-03-05T21:53:06.917Z,94816.71
2019-03-05T21:55:35.553Z,94830.88
2019-03-05T21:58:04.377Z,94816.53
2019-03-05T22:00:34.246Z,94818.35
2019-03-05T22:03:03.277Z,94840.10
2019-03-05T22:05:31.967Z,94832.69
2019-03-05T22:08:00.493Z,94827.52
2019-03-05T22:10:29.053Z,94822.18
2019-03-05T22:12:57.685Z,94834.49
2019-03-05T22:15:30.928Z,94841.02
2019-03-05T22:17:59.667Z,94847.22
2019-03-05T22:20:28.461Z,94852.71
2019-03-05T22:22:57.514Z,94855.26
2019-03-05T22:25:26.236Z,94844.95
2019-03-05T22:27:54.861Z,94856.48
2019-03-05T22:30:26.070Z,94852.25
2019-03-05T22:32:54.694Z,94849.95
2019-03-05T22:35:23.436Z,94839.78
2019-03-05T22:38:00.880Z,94856.35
2019-03-05T22:40:29.612Z,94851.46
2019-03-05T22:42:58.160Z,94853.43
2019-03-05T22:45:31.286Z,94858.00
2019-03-05T22:47:59.912Z,94852.31
2019-03-05T22:50:28.528Z,94864.75
2019-03-05T22:52:57.129Z,94856.69
2019-03-05T22:55:25.686Z,94863.22
2019-03-05T22:57:54.406Z,94858.66
2019-03-05T23:00:55.023Z,94859.61
2019-03-05T23:03:26.154Z,94860.68
2019-03-05T23:05:54.774Z,94864.62
2019-03-05T23:08:23.502Z,94865.70
2019-03-05T23:10:52.439Z,94869.34
2019-03-05T23:13:21.099Z,94869.02
2019-03-05T23:15:50.185Z,94870.66
2019-03-05T23:18:19.006Z,94866.22
2019-03-05T23:20:47.749Z,94868.33
2019-03-05T23:23:16.240Z,94867.16
2019-03-05T23:25:44.783Z,94877.78
2019-03-05T23:28:13.551Z,94869.92
2019-03-05T23:30:42.178Z,94875.02
2019-03-05T23:33:10.845Z,94876.69
2019-03-05T23:35:39.442Z,94875.73
2019-03-05T23:38:08.069Z,94873.40
2019-03-05T23:40:36.560Z,94870.16
2019-03-05T23:43:05.471Z,94868.66
2019-03-05T23:45:34.595Z,94862.56
2019-03-05T23:48:03.087Z,94865.56
2019-03-05T23:50:31.621Z,94866.50
2019-03-05T23:53:00.254Z,94863.70
2019-03-05T23:55:29.151Z,94857.63
2019-03-05T23:57:57.720Z,94857.50
